Time;durP1;ratioP1;P1;durP2;ratioP2;P2;SDS_P1;SDS_P2;PMS_P1;PMS_P2;Temp;Humidity;BMP_temperature;BMP_pressure;BME280_temperature;BME280_humidity;BME280_pressure;Samples;Min_cycle;Max_cycle;Signal;HPM_P1;HPM_P2
2022/11/19 00:00:51;;;;;;;11.50;7.55;;;-3.60;96.10;;;;;;4993553;28;19909;-88
2022/11/19 00:03:19;;;;;;;12.50;7.10;;;-3.70;96.20;;;;;;4993348;28;20030;-87
2022/11/19 00:05:45;;;;;;;;;;;-3.60;96.20;;;;;;4995942;28;20026;-87
2022/11/19 00:08:19;;;;;;;11.25;6.93;;;-3.70;96.10;;;;;;4993716;28;20000;-85
2022/11/19 00:10:46;;;;;;;8.60;6.60;;;-3.70;96.10;;;;;;4993439;28;20034;-85
2022/11/19 00:13:13;;;;;;;11.77;7.03;;;-3.70;96.00;;;;;;4993173;28;20034;-86
2022/11/19 00:15:39;;;;;;;14.27;8.05;;;-3.60;96.10;;;;;;4993792;28;20053;-85
2022/11/19 00:18:06;;;;;;;11.05;7.22;;;-3.70;96.00;;;;;;4993777;28;20035;-86
2022/11/19 00:20:33;;;;;;;16.70;8.23;;;-3.70;96.00;;;;;;4993910;28;20026;-85
2022/11/19 00:22:59;;;;;;;10.63;8.50;;;-3.70;96.00;;;;;;5004942;28;20108;-86
2022/11/19 00:25:28;;;;;;;15.82;8.30;;;-3.70;95.70;;;;;;5006697;28;20452;-86
2022/11/19 00:27:56;;;;;;;15.45;8.05;;;-3.70;95.70;;;;;;4994461;28;20026;-84
2022/11/19 00:30:22;;;;;;;12.50;8.30;;;-3.80;95.60;;;;;;4996880;28;20034;-85
2022/11/19 00:32:48;;;;;;;11.82;7.88;;;-3.80;95.50;;;;;;5001056;28;20114;-85
2022/11/19 00:35:14;;;;;;;12.57;8.23;;;-3.90;95.40;;;;;;4994206;28;20142;-86
2022/11/19 00:37:40;;;;;;;11.48;8.73;;;-3.90;95.70;;;;;;4994278;28;20026;-84
2022/11/19 00:40:07;;;;;;;17.20;8.40;;;-4.00;95.40;;;;;;4994008;28;20392;-84
2022/11/19 00:42:34;;;;;;;11.32;8.23;;;-4.00;95.40;;;;;;4991631;28;20033;-83
2022/11/19 00:45:00;;;;;;;12.20;8.05;;;-4.00;95.30;;;;;;4993658;28;20089;-82
2022/11/19 00:47:25;;;;;;;14.02;8.73;;;-4.00;95.30;;;;;;4995658;28;20022;-83
2022/11/19 00:49:51;;;;;;;10.80;7.80;;;-4.00;95.40;;;;;;4992946;28;20030;-83
2022/11/19 00:52:17;;;;;;;16.42;7.90;;;-4.10;95.50;;;;;;4992684;28;20061;-83
2022/11/19 00:54:43;;;;;;;12.00;9.90;;;-4.10;95.50;;;;;;4992736;28;20076;-83
2022/11/19 00:57:09;;;;;;;13.70;8.77;;;-4.10;95.50;;;;;;4992585;28;20050;-85
2022/11/19 00:59:35;;;;;;;11.48;7.88;;;-4.10;95.40;;;;;;4993879;28;20061;-83
2022/11/19 01:02:00;;;;;;;15.27;9.30;;;-4.10;95.40;;;;;;5005026;28;20492;-81
2022/11/19 01:04:26;;;;;;;12.75;8.10;;;-4.20;95.40;;;;;;5001852;28;20046;-81
2022/11/19 01:06:52;;;;;;;12.15;7.88;;;-4.20;95.30;;;;;;4994209;28;20394;-83
2022/11/19 01:09:19;;;;;;;11.43;7.80;;;-4.30;95.30;;;;;;4992739;28;20029;-84
2022/11/19 01:11:44;;;;;;;14.93;8.02;;;-4.30;95.40;;;;;;4992442;28;20097;-83
2022/11/19 01:14:10;;;;;;;12.77;7.38;;;-4.30;95.40;;;;;;4992712;28;20138;-84
2022/11/19 01:16:39;;;;;;;13.90;7.57;;;-4.30;95.50;;;;;;4993090;28;20097;-84
2022/11/19 01:19:08;;;;;;;11.35;7.30;;;-4.30;95.70;;;;;;4996757;28;20027;-83
2022/11/19 01:21:35;;;;;;;11.20;7.68;;;-4.30;96.00;;;;;;4996866;28;20022;-83
2022/11/19 01:24:02;;;;;;;12.85;10.73;;;-4.30;95.80;;;;;;4996235;28;20068;-83
2022/11/19 01:26:28;;;;;;;12.07;7.93;;;-4.30;95.80;;;;;;4994663;28;20053;-82
2022/11/19 01:28:55;;;;;;;11.87;7.87;;;-4.30;95.90;;;;;;4995244;28;20041;-82
2022/11/19 01:31:24;;;;;;;10.77;7.50;;;-4.30;95.90;;;;;;4996388;28;20033;-83
2022/11/19 01:33:50;;;;;;;10.55;6.68;;;-4.20;96.00;;;;;;4996213;28;20023;-84
2022/11/19 01:36:25;;;;;;;15.15;9.13;;;-4.20;96.00;;;;;;4997282;28;20077;-83
2022/11/19 01:38:53;;;;;;;15.38;9.82;;;-4.20;96.10;;;;;;4996366;28;20018;-84
2022/11/19 01:41:21;;;;;;;11.05;7.97;;;-4.20;96.10;;;;;;4996523;28;20426;-83
2022/11/19 01:43:49;;;;;;;13.98;8.52;;;-4.20;96.30;;;;;;4995928;28;20126;-84
2022/11/19 01:46:21;;;;;;;13.88;9.00;;;-4.10;96.10;;;;;;4996678;28;20133;-82
2022/11/19 01:48:52;;;;;;;11.57;8.60;;;-4.10;96.10;;;;;;4994452;28;20495;-83
2022/11/19 01:51:29;;;;;;;13.82;8.35;;;-4.00;96.10;;;;;;4995678;28;20029;-84
2022/11/19 01:53:58;;;;;;;;;;;-4.00;96.10;;;;;;4991056;28;20038;-82
2022/11/19 01:56:25;;;;;;;16.08;7.80;;;-3.90;96.10;;;;;;4995421;28;19906;-83
2022/11/19 01:58:57;;;;;;;13.23;8.93;;;-4.00;96.10;;;;;;4996343;28;20018;-84
2022/11/19 02:01:23;;;;;;;12.90;8.70;;;-3.90;96.20;;;;;;5009369;28;20026;-84
2022/11/19 02:03:51;;;;;;;18.23;8.73;;;-3.90;96.10;;;;;;5008228;28;20049;-84
2022/11/19 02:06:17;;;;;;;;;;;-3.90;96.10;;;;;;4995024;28;20033;-85
2022/11/19 02:08:52;;;;;;;10.13;7.43;;;-3.90;96.10;;;;;;5007878;28;19905;-84
2022/11/19 02:11:37;;;;;;;14.40;9.23;;;-3.90;96.00;;;;;;5000595;28;20030;-84
2022/11/19 02:14:31;;;;;;;18.38;9.05;;;-3.80;96.00;;;;;;4996480;28;20034;-84
2022/11/19 02:17:19;;;;;;;16.30;9.88;;;-3.80;96.10;;;;;;4995693;28;20038;-84
2022/11/19 02:20:18;;;;;;;12.18;8.77;;;-3.80;96.00;;;;;;4995672;28;20050;-84
2022/11/19 02:23:13;;;;;;;12.30;7.90;;;-3.70;96.00;;;;;;4995950;28;20102;-85
2022/11/19 02:25:59;;;;;;;13.75;8.23;;;-3.70;95.90;;;;;;4984696;28;20034;-85
2022/11/19 02:28:42;;;;;;;13.45;8.25;;;-3.80;95.90;;;;;;4995116;28;20042;-86
2022/11/19 02:31:11;;;;;;;14.93;8.13;;;-3.80;95.90;;;;;;4995534;28;20040;-85
2022/11/19 02:33:58;;;;;;;17.48;9.13;;;-3.80;95.90;;;;;;4996394;28;20030;-84
2022/11/19 02:36:26;;;;;;;;;;;-3.80;96.00;;;;;;5001441;28;20035;-85
2022/11/19 02:38:52;;;;;;;15.40;9.15;;;-3.80;96.00;;;;;;5004073;28;19910;-85
2022/11/19 02:41:45;;;;;;;14.90;8.75;;;-3.90;95.90;;;;;;4999141;28;20078;-84
2022/11/19 02:47:25;;;;;;;11.98;8.95;;;-3.90;95.70;;;;;;4993612;28;20033;-86
2022/11/19 02:49:57;;;;;;;14.38;9.23;;;-3.90;95.70;;;;;;4997653;28;20026;-85
2022/11/19 02:52:23;;;;;;;14.57;9.07;;;-4.00;95.80;;;;;;5011564;28;20019;-82
2022/11/19 02:54:49;;;;;;;17.40;8.68;;;-4.00;95.90;;;;;;5008662;28;20033;-85
2022/11/19 02:57:15;;;;;;;15.07;10.00;;;-3.90;96.10;;;;;;4994874;28;20026;-85
2022/11/19 03:05:34;;;;;;;15.15;8.15;;;-3.80;96.00;;;;;;4995113;28;20037;-86
2022/11/19 03:08:00;;;;;;;13.73;8.95;;;-3.80;95.90;;;;;;4989723;28;20167;-85
2022/11/19 03:10:41;;;;;;;13.45;8.98;;;-3.80;95.90;;;;;;4994883;28;20459;-85
2022/11/19 03:18:58;;;;;;;14.98;9.35;;;-3.60;96.10;;;;;;4984760;28;20037;-86
2022/11/19 03:21:42;;;;;;;13.68;9.02;;;-3.50;96.20;;;;;;4994847;28;20081;-87
2022/11/19 03:24:16;;;;;;;17.08;10.18;;;-3.50;96.30;;;;;;4994737;28;20508;-86
2022/11/19 03:26:51;;;;;;;11.43;7.72;;;-3.40;96.30;;;;;;4994530;28;20037;-85
2022/11/19 03:29:19;;;;;;;11.77;8.80;;;-3.40;96.30;;;;;;4995488;28;20033;-87
2022/11/19 03:31:50;;;;;;;15.23;8.65;;;-3.30;96.30;;;;;;4998597;28;20018;-86
2022/11/19 03:34:21;;;;;;;13.13;8.25;;;-3.30;96.30;;;;;;5010358;28;20049;-84
2022/11/19 03:36:50;;;;;;;11.88;7.43;;;-3.30;96.20;;;;;;4995025;28;20046;-86
2022/11/19 03:39:18;;;;;;;10.55;6.75;;;-3.30;96.30;;;;;;4994173;28;20026;-85
2022/11/19 03:41:47;;;;;;;11.00;7.10;;;-3.30;96.40;;;;;;4995161;28;20030;-86
2022/11/19 03:44:41;;;;;;;11.88;8.38;;;-3.30;96.50;;;;;;5001490;28;20365;-85
2022/11/19 03:47:31;;;;;;;12.15;7.90;;;-3.30;96.30;;;;;;5000942;28;20395;-86
2022/11/19 03:50:19;;;;;;;12.63;7.57;;;-3.30;96.40;;;;;;4998320;28;20125;-85
2022/11/19 03:52:45;;;;;;;10.25;6.90;;;-3.20;96.40;;;;;;4998815;28;20041;-84
2022/11/19 03:55:11;;;;;;;8.98;7.10;;;-3.20;96.20;;;;;;4998649;28;20026;-86
2022/11/19 03:57:38;;;;;;;11.23;6.90;;;-3.20;95.90;;;;;;4994301;28;20026;-85
2022/11/19 04:00:05;;;;;;;15.77;9.45;;;-3.20;96.10;;;;;;4993252;28;20388;-86
2022/11/19 04:02:30;;;;;;;9.75;5.80;;;-3.30;96.00;;;;;;4994534;28;20030;-84
2022/11/19 04:04:56;;;;;;;11.13;7.25;;;-3.30;96.20;;;;;;4993004;28;20802;-85
2022/11/19 04:07:22;;;;;;;10.13;7.25;;;-3.30;96.30;;;;;;4995329;28;20084;-85
2022/11/19 04:09:49;;;;;;;12.57;7.28;;;-3.20;96.20;;;;;;5001124;28;20349;-86
2022/11/19 04:12:20;;;;;;;8.23;6.47;;;-3.20;96.10;;;;;;4997868;28;20424;-86
2022/11/19 04:14:46;;;;;;;11.50;7.28;;;-3.10;96.00;;;;;;4993801;28;20113;-87
2022/11/19 04:17:13;;;;;;;12.90;8.68;;;-3.10;95.80;;;;;;4995864;28;20038;-86
2022/11/19 04:19:39;;;;;;;10.63;7.82;;;-3.10;95.70;;;;;;4993729;28;20018;-85
2022/11/19 04:22:05;;;;;;;9.68;7.35;;;-3.00;95.40;;;;;;4982765;28;20038;-85
2022/11/19 04:24:31;;;;;;;13.60;7.03;;;-3.00;95.30;;;;;;4993924;28;20495;-84
2022/11/19 04:26:57;;;;;;;11.93;6.57;;;-3.00;95.30;;;;;;4999702;28;20082;-85
2022/11/19 04:29:23;;;;;;;12.57;6.50;;;-2.90;95.30;;;;;;5010374;28;20030;-85
2022/11/19 04:31:51;;;;;;;8.00;5.85;;;-3.00;94.90;;;;;;5001284;28;20026;-86
2022/11/19 04:34:17;;;;;;;12.45;7.57;;;-3.00;94.80;;;;;;4996502;28;20519;-86
2022/11/19 04:36:43;;;;;;;8.85;5.22;;;-3.00;94.90;;;;;;4995056;28;20053;-85
2022/11/19 04:39:11;;;;;;;10.23;6.40;;;-3.00;95.00;;;;;;4995379;28;20496;-85
2022/11/19 04:41:38;;;;;;;8.10;6.25;;;-3.00;95.00;;;;;;5010285;28;20026;-84
2022/11/19 04:44:04;;;;;;;7.15;5.40;;;-3.00;95.00;;;;;;5009654;28;20034;-86
2022/11/19 04:46:30;;;;;;;9.00;6.25;;;-2.90;95.10;;;;;;4994146;28;20472;-84
2022/11/19 04:48:56;;;;;;;12.15;6.90;;;-2.90;95.10;;;;;;4993975;28;20189;-86
2022/11/19 04:51:23;;;;;;;8.88;6.10;;;-2.90;94.90;;;;;;4996109;28;20018;-85
2022/11/19 04:53:49;;;;;;;9.43;6.80;;;-2.90;95.10;;;;;;4998783;28;20058;-87
2022/11/19 04:56:15;;;;;;;7.10;5.05;;;-2.80;94.90;;;;;;4995360;28;20037;-85
2022/11/19 04:58:41;;;;;;;9.68;5.90;;;-2.80;94.90;;;;;;4991832;28;20049;-84
2022/11/19 05:01:07;;;;;;;9.38;6.32;;;-2.80;95.00;;;;;;4993067;28;20026;-83
2022/11/19 05:03:33;;;;;;;8.65;6.85;;;-2.70;95.00;;;;;;5002929;28;20036;-84
2022/11/19 05:05:59;;;;;;;9.50;6.60;;;-2.70;94.60;;;;;;4999289;28;20010;-85
2022/11/19 05:08:25;;;;;;;12.82;6.05;;;-2.70;94.60;;;;;;4992912;28;20044;-86
2022/11/19 05:10:51;;;;;;;11.65;5.68;;;-2.70;94.60;;;;;;4992731;28;20054;-83
2022/11/19 05:13:16;;;;;;;9.77;6.13;;;-2.80;94.30;;;;;;4992529;28;20026;-84
2022/11/19 05:15:42;;;;;;;9.32;5.97;;;-2.80;94.20;;;;;;4992217;28;20500;-85
2022/11/19 05:18:08;;;;;;;9.70;5.60;;;-2.80;94.20;;;;;;4992470;28;20014;-86
2022/11/19 05:20:34;;;;;;;12.38;6.82;;;-2.90;94.40;;;;;;4992569;28;20031;-85
2022/11/19 05:22:59;;;;;;;8.23;6.18;;;-2.90;94.60;;;;;;4992316;28;20046;-86
2022/11/19 05:25:25;;;;;;;9.30;6.78;;;-2.80;94.70;;;;;;4992105;28;20033;-85
2022/11/19 05:27:51;;;;;;;13.93;7.35;;;-2.80;94.70;;;;;;4992456;28;20014;-86
2022/11/19 05:30:17;;;;;;;11.88;8.35;;;-2.80;94.60;;;;;;4993156;28;20018;-86
2022/11/19 05:32:43;;;;;;;9.68;5.93;;;-2.80;94.60;;;;;;4993756;28;20026;-84
2022/11/19 05:35:09;;;;;;;11.13;7.22;;;-2.80;94.70;;;;;;5008350;28;20027;-84
2022/11/19 05:37:35;;;;;;;13.15;8.55;;;-2.80;94.70;;;;;;4999137;28;20033;-83
2022/11/19 05:40:00;;;;;;;14.00;7.10;;;-2.80;94.80;;;;;;4993345;28;20030;-84
2022/11/19 05:42:26;;;;;;;11.73;7.40;;;-2.80;94.70;;;;;;4994860;28;20464;-83
2022/11/19 05:44:52;;;;;;;13.65;8.30;;;-2.80;94.70;;;;;;4994227;28;20126;-85
2022/11/19 05:47:18;;;;;;;12.02;8.27;;;-2.80;94.60;;;;;;4993456;28;20065;-85
2022/11/19 05:49:44;;;;;;;12.95;6.72;;;-2.80;94.70;;;;;;4996342;28;20023;-86
2022/11/19 05:52:10;;;;;;;14.30;7.75;;;-2.70;94.90;;;;;;4996566;28;20019;-86
2022/11/19 05:54:36;;;;;;;14.50;8.90;;;-2.70;94.80;;;;;;4991153;28;20030;-86
2022/11/19 05:57:04;;;;;;;12.90;8.65;;;-2.70;94.90;;;;;;4992053;28;20096;-86
2022/11/19 05:59:30;;;;;;;13.05;8.15;;;-2.70;95.00;;;;;;4994225;28;20027;-85
2022/11/19 06:01:56;;;;;;;12.48;8.18;;;-2.70;95.10;;;;;;5006462;28;20022;-83
2022/11/19 06:04:22;;;;;;;11.85;8.02;;;-2.60;95.10;;;;;;5012214;28;20046;-84
2022/11/19 06:06:48;;;;;;;16.25;7.75;;;-2.60;95.00;;;;;;5000028;28;20019;-85
2022/11/19 06:09:14;;;;;;;12.88;8.40;;;-2.60;95.00;;;;;;4998280;28;20026;-85
2022/11/19 06:11:46;;;;;;;10.93;7.97;;;-2.60;94.80;;;;;;4999387;28;20026;-87
2022/11/19 06:14:13;;;;;;;20.42;13.15;;;-2.60;94.90;;;;;;4996612;28;20053;-86
2022/11/19 06:16:39;;;;;;;18.97;8.77;;;-2.70;95.10;;;;;;4996962;28;20109;-86
2022/11/19 06:19:17;;;;;;;11.55;7.75;;;-2.70;95.50;;;;;;4999540;28;20260;-87
2022/11/19 06:21:44;;;;;;;11.90;6.55;;;-2.70;95.60;;;;;;5002515;28;20082;-84
2022/11/19 06:24:11;;;;;;;10.30;7.43;;;-2.60;95.60;;;;;;5006268;28;20058;-85
2022/11/19 06:26:38;;;;;;;10.13;6.15;;;-2.60;95.50;;;;;;5004775;28;20022;-85
2022/11/19 06:29:04;;;;;;;12.32;7.18;;;-2.60;95.50;;;;;;5008365;28;20054;-85
2022/11/19 06:31:30;;;;;;;9.20;5.50;;;-2.60;95.30;;;;;;5003249;28;20022;-86
2022/11/19 06:33:56;;;;;;;17.85;9.70;;;-2.70;95.30;;;;;;5007979;28;20026;-83
2022/11/19 06:36:22;;;;;;;9.55;7.57;;;-2.70;95.40;;;;;;5013155;28;20498;-84
2022/11/19 06:38:48;;;;;;;9.40;6.63;;;-2.80;95.30;;;;;;4998874;28;20038;-85
2022/11/19 06:41:14;;;;;;;11.60;6.65;;;-2.80;95.40;;;;;;4997666;28;20023;-86
2022/11/19 06:43:43;;;;;;;8.68;6.38;;;-2.80;95.60;;;;;;4996131;28;20025;-83
2022/11/19 06:46:10;;;;;;;12.52;7.10;;;-2.80;95.60;;;;;;4997182;28;20093;-83
2022/11/19 06:48:36;;;;;;;9.70;6.43;;;-2.80;95.70;;;;;;4996959;28;20498;-85
2022/11/19 06:51:03;;;;;;;10.95;6.13;;;-2.80;95.70;;;;;;4998138;28;20034;-87
2022/11/19 06:53:29;;;;;;;16.45;7.65;;;-2.80;95.70;;;;;;4998247;28;20026;-88
2022/11/19 06:56:02;;;;;;;12.13;7.20;;;-2.80;95.60;;;;;;5001937;28;20053;-87
2022/11/19 06:58:28;;;;;;;11.25;7.03;;;-2.80;95.70;;;;;;4998684;28;20027;-85
2022/11/19 07:00:55;;;;;;;12.40;7.35;;;-2.70;95.90;;;;;;4996038;28;20018;-86
2022/11/19 07:03:21;;;;;;;9.38;6.20;;;-2.70;95.90;;;;;;4997610;28;20034;-87
2022/11/19 07:05:49;;;;;;;8.95;5.97;;;-2.70;95.40;;;;;;4996055;28;20035;-87
2022/11/19 07:08:15;;;;;;;12.50;7.80;;;-2.70;95.50;;;;;;4995952;28;20032;-86
2022/11/19 07:10:42;;;;;;;12.60;7.50;;;-2.70;95.80;;;;;;4997215;28;20023;-87
2022/11/19 07:13:07;;;;;;;11.82;8.18;;;-2.70;95.90;;;;;;4997852;28;20097;-87
2022/11/19 07:15:34;;;;;;;16.45;8.68;;;-2.60;95.90;;;;;;4995378;28;20054;-87
2022/11/19 07:18:00;;;;;;;13.52;7.60;;;-2.50;96.00;;;;;;5002506;28;20046;-86
2022/11/19 07:20:27;;;;;;;11.27;7.32;;;-2.50;95.80;;;;;;5001808;28;20018;-85
2022/11/19 07:22:53;;;;;;;14.35;7.07;;;-2.40;95.80;;;;;;4996947;28;20046;-87
2022/11/19 07:25:22;;;;;;;8.45;7.18;;;-2.30;95.90;;;;;;4998023;28;20385;-83
2022/11/19 07:27:50;;;;;;;9.82;5.95;;;-2.20;95.80;;;;;;4996308;28;20034;-83
2022/11/19 07:30:21;;;;;;;11.55;6.45;;;-2.20;95.60;;;;;;5003234;28;20022;-83
2022/11/19 07:32:47;;;;;;;11.38;6.60;;;-2.10;95.50;;;;;;5002483;28;20026;-86
2022/11/19 07:35:20;;;;;;;12.15;6.68;;;-2.20;95.20;;;;;;4994767;28;20026;-87
2022/11/19 07:37:46;;;;;;;10.88;7.65;;;-2.10;95.00;;;;;;4989817;28;20035;-85
2022/11/19 07:40:15;;;;;;;9.75;6.82;;;-2.20;95.10;;;;;;4995285;28;20072;-88
2022/11/19 07:42:51;;;;;;;12.82;8.18;;;-2.10;95.20;;;;;;4993537;28;20117;-88
2022/11/19 07:45:18;;;;;;;13.77;7.80;;;-2.10;95.40;;;;;;4989221;28;20034;-85
2022/11/19 07:47:44;;;;;;;16.52;7.03;;;-2.00;95.30;;;;;;4994509;28;20030;-84
2022/11/19 07:50:17;;;;;;;10.30;6.57;;;-2.00;95.20;;;;;;5000136;28;20033;-87
2022/11/19 07:52:43;;;;;;;9.27;6.70;;;-2.00;95.20;;;;;;4985235;28;20434;-86
2022/11/19 07:55:09;;;;;;;11.27;7.55;;;-2.00;94.90;;;;;;4995810;28;20384;-90
2022/11/19 07:57:39;;;;;;;10.52;7.22;;;-2.00;94.80;;;;;;4996058;28;20022;-87
2022/11/19 08:00:08;;;;;;;13.10;8.48;;;-2.00;94.90;;;;;;4994734;28;20124;-89
2022/11/19 08:02:35;;;;;;;13.82;8.13;;;-2.00;95.10;;;;;;4978740;28;20026;-86
2022/11/19 08:05:01;;;;;;;14.07;7.60;;;-1.90;95.40;;;;;;5009593;28;20076;-86
2022/11/19 08:07:26;;;;;;;10.18;6.75;;;-1.90;95.40;;;;;;4999380;28;20026;-87
2022/11/19 08:09:52;;;;;;;10.90;6.90;;;-1.80;95.20;;;;;;4993974;28;20049;-86
2022/11/19 08:12:18;;;;;;;11.07;7.68;;;-1.80;94.90;;;;;;4992982;28;20097;-85
2022/11/19 08:14:44;;;;;;;16.30;7.05;;;-1.80;95.00;;;;;;4994220;28;20033;-87
2022/11/19 08:19:54;;;;;;;8.57;6.85;;;-1.90;94.40;;;;;;4994015;28;20092;-84
2022/11/19 08:22:40;;;;;;;13.77;9.35;;;-1.90;94.70;;;;;;4994559;28;20045;-85
2022/11/19 08:25:08;;;;;;;10.27;6.60;;;-1.90;94.60;;;;;;5002706;28;20093;-84
2022/11/19 08:27:34;;;;;;;10.50;8.18;;;-2.10;94.60;;;;;;5008766;28;20018;-85
2022/11/19 08:30:00;;;;;;;14.85;9.10;;;-2.10;94.90;;;;;;5000928;28;20105;-87
2022/11/19 08:32:27;;;;;;;11.75;8.13;;;-2.20;95.10;;;;;;4995420;28;20046;-87
2022/11/19 08:34:53;;;;;;;11.30;7.45;;;-2.20;95.30;;;;;;4994894;28;20042;-88
2022/11/19 08:37:18;;;;;;;11.48;7.75;;;-2.20;95.60;;;;;;4995807;28;20026;-87
2022/11/19 08:39:44;;;;;;;9.13;5.78;;;-2.20;95.70;;;;;;4997337;28;20832;-86
2022/11/19 08:44:55;;;;;;;15.63;8.25;;;-2.10;95.50;;;;;;4999384;28;20045;-86
2022/11/19 08:47:21;;;;;;;17.00;8.57;;;-2.10;95.50;;;;;;4995162;28;20015;-84
2022/11/19 08:49:46;;;;;;;11.32;7.57;;;-2.10;95.50;;;;;;5001131;28;20061;-86
2022/11/19 08:52:13;;;;;;;13.77;10.45;;;-2.10;95.20;;;;;;4996996;28;20544;-85
2022/11/19 08:54:39;;;;;;;13.05;9.52;;;-2.20;95.50;;;;;;4996403;28;20034;-86
2022/11/19 08:57:07;;;;;;;13.35;8.20;;;-2.20;95.60;;;;;;4995477;28;20041;-85
2022/11/19 08:59:33;;;;;;;18.90;12.10;;;-2.20;95.90;;;;;;4997225;28;20073;-86
2022/11/19 09:01:59;;;;;;;18.10;8.48;;;-2.10;96.10;;;;;;5006514;28;20034;-85
2022/11/19 09:04:25;;;;;;;12.13;8.80;;;-2.10;95.90;;;;;;5001306;28;20512;-83
2022/11/19 09:06:51;;;;;;;15.00;8.80;;;-2.10;96.10;;;;;;4993697;28;20022;-81
2022/11/19 09:09:17;;;;;;;14.68;9.07;;;-2.10;96.10;;;;;;4993071;28;20069;-84
2022/11/19 09:11:42;;;;;;;11.90;7.22;;;-2.00;96.10;;;;;;4996743;28;20460;-84
2022/11/19 09:14:08;;;;;;;11.25;6.78;;;-1.90;96.20;;;;;;4994861;28;20022;-85
2022/11/19 09:16:34;;;;;;;11.85;7.28;;;-1.90;96.00;;;;;;4995087;28;20065;-86
2022/11/19 09:19:01;;;;;;;10.35;8.52;;;-1.90;95.70;;;;;;4999987;28;20019;-86
2022/11/19 09:21:27;;;;;;;9.20;6.50;;;-1.90;95.40;;;;;;4993958;28;20022;-85
2022/11/19 09:23:53;;;;;;;14.13;7.38;;;-2.00;95.50;;;;;;4994878;28;20102;-90
2022/11/19 09:26:19;;;;;;;10.68;8.15;;;-1.90;95.70;;;;;;4998171;28;20026;-88
2022/11/19 09:28:45;;;;;;;11.95;8.68;;;-1.90;95.80;;;;;;4994680;28;20027;-89
2022/11/19 09:31:15;;;;;;;12.57;8.52;;;-1.90;95.60;;;;;;4995283;28;20066;-86
2022/11/19 09:33:44;;;;;;;7.30;5.55;;;-1.90;95.60;;;;;;4997633;28;20023;-87
2022/11/19 09:36:11;;;;;;;11.38;7.13;;;-2.00;95.90;;;;;;5001378;28;20041;-88
2022/11/19 09:38:39;;;;;;;13.47;9.60;;;-2.00;95.60;;;;;;4994974;28;20038;-85
2022/11/19 09:41:16;;;;;;;10.45;7.40;;;-2.10;95.70;;;;;;4996460;28;20322;-85
2022/11/19 09:44:06;;;;;;;9.93;7.32;;;-2.10;96.10;;;;;;4994027;28;20041;-81
2022/11/19 09:46:53;;;;;;;12.63;7.97;;;-2.10;96.00;;;;;;4994364;28;20052;-83
2022/11/19 09:49:44;;;;;;;12.65;8.38;;;-2.00;96.20;;;;;;5000122;28;20051;-82
2022/11/19 09:52:15;;;;;;;12.27;8.50;;;-2.00;96.30;;;;;;4990222;28;20026;-82
2022/11/19 09:54:48;;;;;;;12.10;7.13;;;-2.00;96.40;;;;;;4995373;28;20026;-83
2022/11/19 09:57:25;;;;;;;17.25;9.48;;;-1.90;96.40;;;;;;4994345;28;20047;-82
2022/11/19 09:59:56;;;;;;;12.88;9.63;;;-1.90;96.40;;;;;;4994426;28;20492;-81
2022/11/19 10:02:22;;;;;;;10.82;8.07;;;-1.90;96.60;;;;;;4995219;28;20043;-81
2022/11/19 10:04:53;;;;;;;9.88;8.15;;;-1.90;96.40;;;;;;4995866;28;20031;-82
2022/11/19 10:07:37;;;;;;;13.07;9.10;;;-1.90;96.20;;;;;;4994761;28;20025;-80
2022/11/19 10:10:21;;;;;;;12.75;8.80;;;-1.80;96.10;;;;;;4995637;28;20102;-82
2022/11/19 10:13:12;;;;;;;11.75;7.97;;;-1.80;95.90;;;;;;4996072;28;20084;-82
2022/11/19 10:15:56;;;;;;;15.23;8.30;;;-1.90;96.00;;;;;;4994440;28;20026;-81
2022/11/19 10:18:40;;;;;;;13.75;9.52;;;-1.80;96.20;;;;;;4995400;28;20026;-79
2022/11/19 10:21:24;;;;;;;10.20;7.72;;;-1.80;96.10;;;;;;4999757;28;20034;-78
2022/11/19 10:23:58;;;;;;;12.52;8.18;;;-1.70;96.10;;;;;;4996716;28;20088;-80
2022/11/19 10:26:34;;;;;;;11.88;8.40;;;-1.70;96.30;;;;;;4994795;28;20030;-85
2022/11/19 10:29:02;;;;;;;13.82;10.07;;;-1.70;96.20;;;;;;4996179;28;20026;-85
2022/11/19 10:31:46;;;;;;;15.98;7.78;;;-1.70;96.30;;;;;;4995220;28;20030;-83
2022/11/19 10:34:29;;;;;;;9.40;7.30;;;-1.70;96.00;;;;;;4990777;28;20018;-86
2022/11/19 10:37:13;;;;;;;11.55;7.85;;;-1.70;96.00;;;;;;4996346;28;20027;-87
2022/11/19 10:40:01;;;;;;;10.82;7.78;;;-1.70;95.90;;;;;;4994512;28;20027;-83
2022/11/19 10:42:40;;;;;;;11.65;8.38;;;-1.80;95.80;;;;;;4996537;28;20130;-84
2022/11/19 10:45:18;;;;;;;12.18;7.82;;;-1.80;95.90;;;;;;4996981;28;20102;-84
2022/11/19 10:48:12;;;;;;;13.55;9.40;;;-1.80;96.00;;;;;;5001878;28;20042;-82
2022/11/19 10:50:41;;;;;;;15.27;9.77;;;-1.80;96.10;;;;;;4994370;28;20030;-82
2022/11/19 10:53:19;;;;;;;17.98;10.30;;;-1.80;96.10;;;;;;4996872;28;20535;-83
2022/11/19 10:56:19;;;;;;;13.50;9.18;;;-1.80;96.10;;;;;;4995192;28;20018;-82
2022/11/19 10:58:56;;;;;;;12.20;8.35;;;-1.80;96.10;;;;;;4997780;28;20110;-85
2022/11/19 11:01:31;;;;;;;9.77;6.87;;;-1.90;96.00;;;;;;5008093;28;20113;-84
2022/11/19 11:04:12;;;;;;;13.60;8.40;;;-2.00;95.80;;;;;;4997372;28;20275;-87
2022/11/19 11:07:02;;;;;;;11.75;8.27;;;-2.10;96.20;;;;;;5004886;28;20380;-85
2022/11/19 11:09:37;;;;;;;9.30;7.95;;;-2.10;96.30;;;;;;4994259;28;20026;-87
2022/11/19 11:15:13;;;;;;;11.15;7.80;;;-2.10;96.60;;;;;;4997709;28;20038;-85
2022/11/19 11:17:41;;;;;;;13.63;7.97;;;-2.10;96.70;;;;;;4999885;28;20026;-89
2022/11/19 11:20:07;;;;;;;13.73;9.70;;;-2.10;96.60;;;;;;4994110;28;20022;-85
2022/11/19 11:22:34;;;;;;;10.57;7.75;;;-2.10;96.80;;;;;;5003332;28;20031;-86
2022/11/19 11:25:01;;;;;;;11.70;8.40;;;-2.00;96.90;;;;;;4995085;28;20042;-87
2022/11/19 11:27:32;;;;;;;11.93;8.35;;;-2.00;96.80;;;;;;4998163;28;20053;-83
2022/11/19 11:30:24;;;;;;;13.90;9.20;;;-2.00;96.80;;;;;;4998458;28;20034;-86
2022/11/19 11:32:51;;;;;;;15.80;9.25;;;-1.90;96.90;;;;;;4997733;28;20037;-85
2022/11/19 11:35:37;;;;;;;10.40;7.45;;;-1.90;96.60;;;;;;5000352;28;20034;-84
2022/11/19 11:38:04;;;;;;;12.50;7.40;;;-1.90;96.40;;;;;;5002005;28;20379;-88
2022/11/19 11:40:32;;;;;;;12.27;7.60;;;-2.00;96.40;;;;;;4996538;28;20081;-88
2022/11/19 11:42:58;;;;;;;14.93;9.00;;;-2.00;96.40;;;;;;5000919;28;20064;-89
2022/11/19 11:45:33;;;;;;;16.92;8.85;;;-2.00;96.60;;;;;;5006868;28;20515;-85
2022/11/19 11:48:19;;;;;;;13.70;8.07;;;-2.00;96.50;;;;;;5002905;28;20026;-85
2022/11/19 11:50:46;;;;;;;41.88;17.98;;;-2.00;96.70;;;;;;4992833;28;20022;-84
2022/11/19 11:53:30;;;;;;;13.27;8.23;;;-2.00;96.80;;;;;;4993489;28;20038;-86
2022/11/19 11:56:00;;;;;;;19.30;11.35;;;-1.90;97.00;;;;;;4990287;28;20049;-86
2022/11/19 11:58:29;;;;;;;9.98;7.35;;;-2.00;97.10;;;;;;5002496;28;20023;-86
2022/11/19 12:01:12;;;;;;;12.05;8.80;;;-1.90;97.20;;;;;;4997060;28;20030;-87
2022/11/19 12:03:56;;;;;;;12.13;7.70;;;-1.90;97.30;;;;;;4995385;28;20114;-85
2022/11/19 12:06:27;;;;;;;11.82;7.47;;;-1.90;97.40;;;;;;4988677;28;20148;-85
2022/11/19 12:09:13;;;;;;;10.40;7.78;;;-1.90;97.40;;;;;;4995922;28;20023;-85
2022/11/19 12:12:06;;;;;;;14.20;10.05;;;-1.90;97.50;;;;;;5006277;28;20053;-83
2022/11/19 12:14:50;;;;;;;13.68;9.48;;;-1.90;97.00;;;;;;4999611;28;20038;-84
2022/11/19 12:17:29;;;;;;;13.32;10.68;;;-2.00;96.70;;;;;;4983896;28;20038;-85
2022/11/19 12:20:23;;;;;;;15.40;10.48;;;-2.00;96.70;;;;;;4994486;28;20026;-83
2022/11/19 12:23:06;;;;;;;11.60;8.57;;;-2.00;97.00;;;;;;4994417;28;20353;-85
2022/11/19 12:25:51;;;;;;;13.73;9.45;;;-2.00;97.20;;;;;;4981427;28;20376;-84
2022/11/19 12:28:20;;;;;;;15.77;9.70;;;-2.10;97.30;;;;;;4994035;28;20460;-84
2022/11/19 12:30:51;;;;;;;16.10;11.45;;;-2.10;97.30;;;;;;5005735;28;20022;-84
2022/11/19 12:33:44;;;;;;;15.35;9.45;;;-2.10;97.20;;;;;;4995086;28;20037;-84
2022/11/19 12:36:55;;;;;;;11.73;7.90;;;-2.10;97.50;;;;;;4995791;28;20061;-84
2022/11/19 12:39:38;;;;;;;15.57;8.90;;;-2.10;97.60;;;;;;5000104;28;20021;-87
2022/11/19 12:42:28;;;;;;;13.95;10.55;;;-2.10;97.70;;;;;;4994013;28;20432;-83
2022/11/19 12:45:02;;;;;;;12.65;9.52;;;-2.00;97.80;;;;;;4992224;28;20066;-84
2022/11/19 12:47:57;;;;;;;14.18;9.50;;;-2.00;97.50;;;;;;4992645;28;20026;-87
2022/11/19 12:50:23;;;;;;;13.30;7.82;;;-2.10;97.40;;;;;;4995145;28;20022;-85
2022/11/19 12:52:52;;;;;;;14.65;10.50;;;-2.10;97.30;;;;;;4993716;28;20041;-84
2022/11/19 12:55:53;;;;;;;15.38;10.25;;;-2.10;97.40;;;;;;4993554;28;20029;-85
2022/11/19 12:58:42;;;;;;;12.35;8.45;;;-2.20;97.50;;;;;;4980293;28;20038;-85
2022/11/19 13:01:39;;;;;;;13.48;10.32;;;-2.20;98.10;;;;;;4993921;28;20022;-85
2022/11/19 13:04:14;;;;;;;16.77;10.55;;;-2.10;98.00;;;;;;4994312;28;20097;-85
2022/11/19 13:07:04;;;;;;;13.73;9.63;;;-2.20;97.90;;;;;;4995202;28;20080;-86
2022/11/19 13:09:48;;;;;;;10.73;6.78;;;-2.20;97.80;;;;;;4992752;28;20030;-86
2022/11/19 13:12:18;;;;;;;16.15;10.80;;;-2.20;97.80;;;;;;4991853;28;20169;-85
2022/11/19 13:15:04;;;;;;;13.05;9.95;;;-2.30;98.00;;;;;;4992640;28;20023;-84
2022/11/19 13:17:43;;;;;;;15.18;8.52;;;-2.30;98.10;;;;;;4995036;28;20172;-85
2022/11/19 13:20:47;;;;;;;15.85;11.45;;;-2.30;98.20;;;;;;4992358;28;20031;-85
2022/11/19 13:23:25;;;;;;;15.68;11.90;;;-2.30;98.40;;;;;;4955516;28;20178;-85